createdAt,value
2023-03-06T00:00:56.844Z,5.35
2023-03-06T00:03:23.703Z,5.45
2023-03-06T00:08:16.415Z,4.85
2023-03-06T00:10:42.728Z,4.97
2023-03-06T00:13:11.586Z,4.90
2023-03-06T00:15:38.035Z,4.15
2023-03-06T00:18:04.832Z,4.50
2023-03-06T00:22:57.774Z,4.15
2023-03-06T00:25:24.545Z,4.10
2023-03-06T00:27:51.097Z,4.30
2023-03-06T00:30:19.311Z,3.72
2023-03-06T00:32:45.733Z,3.80
2023-03-06T00:35:12.523Z,4.20
2023-03-06T00:37:38.964Z,3.95
2023-03-06T00:40:06.801Z,4.28
2023-03-06T00:42:33.166Z,4.18
2023-03-06T00:44:59.546Z,4.68
2023-03-06T00:47:25.914Z,5.18
2023-03-06T00:49:52.210Z,4.93
2023-03-06T00:52:18.622Z,6.07
2023-03-06T00:54:45.350Z,6.03
2023-03-06T00:57:11.724Z,5.80
2023-03-06T00:59:38.113Z,6.30
2023-03-06T01:02:04.655Z,6.38
2023-03-06T01:04:31.411Z,7.10
2023-03-06T01:06:57.738Z,6.75
2023-03-06T01:09:24.646Z,7.03
2023-03-06T01:11:53.435Z,7.30
2023-03-06T01:14:20.728Z,7.68
2023-03-06T01:16:47.296Z,7.05
2023-03-06T01:19:13.750Z,7.93
2023-03-06T01:21:40.151Z,7.93
2023-03-06T01:24:06.679Z,8.65
2023-03-06T01:26:33.482Z,8.35
2023-03-06T01:31:27.764Z,7.50
2023-03-06T01:33:54.211Z,8.32
2023-03-06T01:36:20.619Z,8.38
2023-03-06T01:38:46.936Z,8.73
2023-03-06T01:41:15.838Z,8.57
2023-03-06T01:43:44.186Z,8.70
2023-03-06T01:46:25.950Z,8.68
2023-03-06T01:48:54.949Z,8.77
2023-03-06T01:51:22.011Z,10.45
2023-03-06T01:53:50.636Z,9.55
2023-03-06T01:56:17.385Z,9.43
2023-03-06T01:58:44.218Z,10.07
2023-03-06T02:03:37.164Z,9.73
2023-03-06T02:06:05.915Z,10.02
2023-03-06T02:08:33.007Z,10.45
2023-03-06T02:10:59.393Z,10.52
2023-03-06T02:13:25.852Z,9.45
2023-03-06T02:15:52.295Z,11.68
2023-03-06T02:18:19.275Z,11.20
2023-03-06T02:20:50.288Z,11.93
2023-03-06T02:23:19.498Z,12.77
2023-03-06T02:25:47.391Z,12.48
2023-03-06T02:28:15.868Z,11.68
2023-03-06T02:30:43.647Z,12.57
2023-03-06T02:33:13.901Z,12.02
2023-03-06T02:35:41.211Z,12.15
2023-03-06T02:38:11.937Z,12.25
2023-03-06T02:40:39.165Z,13.13
2023-03-06T02:43:06.505Z,12.40
2023-03-06T02:45:38.232Z,12.45
2023-03-06T02:48:04.783Z,12.48
2023-03-06T02:50:31.169Z,12.70
2023-03-06T02:52:57.663Z,12.35
2023-03-06T02:55:24.321Z,12.15
2023-03-06T02:57:54.549Z,12.00
2023-03-06T03:00:21.136Z,12.88
2023-03-06T03:02:48.031Z,13.75
2023-03-06T03:05:14.923Z,12.80
2023-03-06T03:07:43.816Z,12.98
2023-03-06T03:12:36.945Z,12.05
2023-03-06T03:15:03.899Z,12.45
2023-03-06T03:19:56.631Z,11.38
2023-03-06T03:22:23.636Z,12.30
2023-03-06T03:24:50.063Z,12.13
2023-03-06T03:27:16.594Z,12.32
2023-03-06T03:32:09.980Z,11.45
2023-03-06T03:34:37.324Z,10.98
2023-03-06T03:37:05.112Z,12.15
2023-03-06T03:39:31.512Z,10.88
2023-03-06T03:41:57.962Z,11.95
2023-03-06T03:44:24.556Z,11.68
2023-03-06T03:46:52.271Z,11.40
2023-03-06T03:49:21.716Z,10.80
2023-03-06T03:51:48.270Z,11.20
2023-03-06T03:54:14.699Z,11.05
2023-03-06T03:56:45.020Z,10.73
2023-03-06T03:59:17.357Z,10.18
2023-03-06T04:02:04.821Z,9.80
2023-03-06T04:04:35.580Z,10.43
2023-03-06T04:09:28.610Z,9.77
2023-03-06T04:14:21.939Z,10.65
2023-03-06T04:16:48.522Z,11.05
2023-03-06T04:19:14.996Z,10.90
2023-03-06T04:21:42.062Z,11.30
2023-03-06T04:24:08.916Z,10.48
2023-03-06T04:26:36.116Z,11.35
2023-03-06T04:29:03.554Z,11.55
2023-03-06T04:31:31.176Z,11.63
2023-03-06T04:33:57.872Z,11.25
2023-03-06T04:38:51.532Z,11.43
2023-03-06T04:41:18.095Z,12.00
2023-03-06T04:43:44.547Z,11.88
2023-03-06T04:46:11.224Z,12.40
2023-03-06T04:48:37.693Z,12.35
2023-03-06T04:51:04.409Z,12.13
2023-03-06T04:53:30.785Z,12.00
2023-03-06T04:55:57.143Z,12.27
2023-03-06T04:58:23.508Z,12.40
2023-03-06T05:00:49.895Z,12.00
2023-03-06T05:03:16.324Z,11.73
2023-03-06T05:05:42.795Z,12.32
2023-03-06T05:08:12.924Z,10.55
2023-03-06T05:10:39.275Z,11.30
2023-03-06T05:13:05.602Z,11.85
2023-03-06T05:15:31.902Z,11.65
2023-03-06T05:17:58.264Z,10.15
2023-03-06T05:20:24.809Z,11.95
2023-03-06T05:22:51.328Z,11.32
2023-03-06T05:25:17.761Z,10.70
2023-03-06T05:27:44.174Z,10.55
2023-03-06T05:30:12.572Z,10.27
2023-03-06T05:32:39.042Z,9.68
2023-03-06T05:35:05.792Z,9.20
2023-03-06T05:37:32.316Z,9.68
2023-03-06T05:39:59.283Z,9.30
2023-03-06T05:42:27.609Z,9.38
2023-03-06T05:44:54.896Z,7.75
2023-03-06T05:47:21.302Z,8.30
2023-03-06T05:49:47.670Z,8.07
2023-03-06T05:52:14.916Z,8.55
2023-03-06T05:54:41.271Z,8.13
2023-03-06T05:57:07.577Z,8.07
2023-03-06T05:59:34.044Z,7.35
2023-03-06T06:02:01.160Z,7.20
2023-03-06T06:04:27.634Z,7.35
2023-03-06T06:06:54.786Z,7.45
2023-03-06T06:09:22.348Z,7.47
2023-03-06T06:11:52.742Z,6.97
2023-03-06T06:14:19.108Z,7.15
2023-03-06T06:16:45.715Z,7.10
2023-03-06T06:19:18.420Z,7.63
2023-03-06T06:21:46.742Z,7.78
2023-03-06T06:24:13.553Z,7.85
2023-03-06T06:29:06.307Z,7.45
2023-03-06T06:31:32.990Z,7.93
2023-03-06T06:33:59.405Z,7.85
2023-03-06T06:36:25.765Z,7.97
2023-03-06T06:38:52.083Z,8.02
2023-03-06T06:41:39.219Z,8.32
2023-03-06T06:44:08.565Z,7.75
2023-03-06T06:49:21.945Z,5.50
2023-03-06T06:51:48.338Z,5.10
2023-03-06T06:54:14.657Z,4.72
2023-03-06T06:56:41.024Z,4.63
2023-03-06T06:59:16.734Z,4.43
2023-03-06T07:01:44.171Z,5.00
2023-03-06T07:04:14.132Z,4.95
2023-03-06T07:06:40.970Z,4.03
2023-03-06T07:09:07.444Z,3.72
2023-03-06T07:11:33.816Z,3.08
2023-03-06T07:14:01.779Z,3.25
2023-03-06T07:16:28.244Z,2.40
2023-03-06T07:18:54.889Z,2.40
2023-03-06T07:21:21.282Z,2.63
2023-03-06T07:23:47.665Z,2.25
2023-03-06T07:26:14.075Z,2.20
2023-03-06T07:28:52.089Z,1.90
2023-03-06T07:31:21.385Z,2.35
2023-03-06T07:33:48.521Z,1.90
2023-03-06T07:36:14.907Z,2.00
2023-03-06T07:38:41.228Z,1.98
2023-03-06T07:41:13.138Z,1.60
2023-03-06T07:43:40.635Z,1.60
2023-03-06T07:46:07.856Z,1.40
2023-03-06T07:48:34.436Z,1.60
2023-03-06T07:51:02.363Z,1.60
2023-03-06T07:53:29.305Z,1.48
2023-03-06T07:55:56.002Z,1.33
2023-03-06T07:58:22.713Z,1.30
2023-03-06T08:00:49.404Z,1.45
2023-03-06T08:03:16.237Z,1.40
2023-03-06T08:08:09.096Z,1.15
2023-03-06T08:10:35.516Z,1.50
2023-03-06T08:13:01.818Z,1.30
2023-03-06T08:15:28.219Z,1.35
2023-03-06T08:17:54.693Z,1.42
2023-03-06T08:20:21.049Z,0.80
2023-03-06T08:22:48.936Z,0.95
2023-03-06T08:25:15.304Z,0.90
2023-03-06T08:27:41.692Z,1.20
2023-03-06T08:30:08.459Z,0.85
2023-03-06T08:32:36.313Z,0.95
2023-03-06T08:35:05.894Z,0.80
2023-03-06T08:37:32.281Z,1.08
2023-03-06T08:39:58.812Z,0.90
2023-03-06T08:42:25.278Z,0.85
2023-03-06T08:44:51.660Z,0.80
2023-03-06T08:47:18.109Z,1.00
2023-03-06T08:49:44.473Z,1.10
2023-03-06T08:52:11.089Z,1.10
2023-03-06T08:54:38.559Z,1.10
2023-03-06T08:57:04.963Z,1.00
2023-03-06T08:59:31.284Z,1.23
2023-03-06T09:01:57.785Z,1.23
2023-03-06T09:04:24.133Z,1.10
2023-03-06T09:06:50.793Z,1.23
2023-03-06T09:09:17.243Z,1.20
2023-03-06T09:11:43.602Z,1.35
2023-03-06T09:14:09.998Z,0.85
2023-03-06T09:16:36.467Z,1.15
2023-03-06T09:19:02.896Z,0.90
2023-03-06T09:21:29.439Z,0.90
2023-03-06T09:23:56.067Z,0.73
2023-03-06T09:26:28.018Z,0.98
2023-03-06T09:28:59.494Z,0.65
2023-03-06T09:31:25.896Z,0.70
2023-03-06T09:33:52.240Z,0.73
2023-03-06T09:36:20.227Z,1.63
2023-03-06T09:38:48.140Z,0.90
2023-03-06T09:41:14.435Z,0.90
2023-03-06T09:43:43.171Z,0.80
2023-03-06T09:46:15.746Z,0.80
2023-03-06T09:48:53.087Z,0.77
2023-03-06T09:51:22.137Z,0.60
2023-03-06T09:53:57.734Z,1.00
2023-03-06T09:56:30.962Z,0.80
2023-03-06T09:59:01.021Z,0.60
2023-03-06T10:01:31.439Z,0.70
2023-03-06T10:04:33.166Z,0.60
2023-03-06T10:07:01.166Z,0.60
2023-03-06T10:09:30.000Z,0.60
2023-03-06T10:12:00.601Z,0.50
2023-03-06T10:14:41.849Z,0.70
2023-03-06T10:17:14.346Z,0.60
2023-03-06T10:19:41.496Z,0.70
2023-03-06T10:22:29.045Z,0.50
2023-03-06T10:25:14.123Z,0.60
2023-03-06T10:27:43.480Z,0.50
2023-03-06T10:30:18.200Z,0.88
2023-03-06T10:32:49.088Z,0.60
2023-03-06T10:35:19.228Z,0.55
2023-03-06T10:37:45.606Z,0.40
2023-03-06T10:40:17.656Z,0.50
2023-03-06T10:42:44.014Z,0.52
2023-03-06T10:45:19.422Z,0.60
2023-03-06T10:47:46.365Z,0.60
2023-03-06T10:50:27.002Z,0.70
2023-03-06T10:53:04.991Z,0.40
2023-03-06T10:55:32.943Z,0.47
2023-03-06T10:58:16.558Z,0.40
2023-03-06T11:00:42.877Z,0.75
2023-03-06T11:03:19.992Z,0.50
2023-03-06T11:05:58.148Z,0.40
2023-03-06T11:08:24.546Z,0.68
2023-03-06T11:11:03.280Z,0.60
2023-03-06T11:13:33.095Z,0.40
2023-03-06T11:16:04.275Z,0.40
2023-03-06T11:18:39.125Z,0.40
2023-03-06T11:21:07.834Z,0.40
2023-03-06T11:23:47.156Z,0.40
2023-03-06T11:26:16.561Z,0.45
2023-03-06T11:29:03.255Z,0.60
2023-03-06T11:31:32.290Z,0.80
2023-03-06T11:34:03.684Z,0.80
2023-03-06T11:36:35.999Z,0.80
2023-03-06T11:39:14.534Z,0.80
2023-03-06T11:42:00.115Z,0.68
2023-03-06T11:44:38.329Z,0.90
2023-03-06T11:47:04.660Z,0.80
2023-03-06T11:49:34.938Z,0.98
2023-03-06T11:52:05.503Z,1.00
2023-03-06T11:54:32.059Z,1.10
2023-03-06T11:57:01.668Z,0.98
2023-03-06T11:59:36.979Z,1.08
2023-03-06T12:02:12.568Z,1.00
2023-03-06T12:04:39.331Z,1.00
2023-03-06T12:09:52.938Z,1.38
2023-03-06T12:12:19.348Z,1.15
2023-03-06T12:14:54.760Z,1.30
2023-03-06T12:17:36.260Z,1.27
2023-03-06T12:20:14.996Z,1.40
2023-03-06T12:22:41.654Z,1.35
2023-03-06T12:25:09.304Z,1.50
2023-03-06T12:27:43.869Z,1.35
2023-03-06T12:30:23.308Z,1.38
2023-03-06T12:33:08.451Z,1.13
2023-03-06T12:35:53.490Z,1.50
2023-03-06T12:38:31.973Z,1.33
2023-03-06T12:41:04.245Z,1.40
2023-03-06T12:43:43.367Z,2.55
2023-03-06T12:46:13.088Z,1.30
2023-03-06T12:48:39.893Z,2.17
2023-03-06T12:51:06.888Z,1.65
2023-03-06T12:53:34.154Z,1.67
2023-03-06T12:56:01.461Z,1.52
2023-03-06T12:58:30.950Z,1.90
2023-03-06T13:01:05.789Z,1.58
2023-03-06T13:03:55.453Z,1.90
2023-03-06T13:06:32.451Z,2.60
2023-03-06T13:09:04.657Z,2.55
2023-03-06T13:11:31.240Z,2.40
2023-03-06T13:13:57.709Z,1.95
2023-03-06T13:16:31.139Z,2.58
2023-03-06T13:19:00.706Z,3.30
2023-03-06T13:21:42.310Z,3.60
2023-03-06T13:24:16.499Z,3.67
2023-03-06T13:26:42.834Z,3.67
2023-03-06T13:29:27.768Z,3.40
2023-03-06T13:31:54.107Z,3.78
2023-03-06T13:34:53.056Z,4.60
2023-03-06T13:37:25.183Z,4.85
2023-03-06T13:39:54.650Z,5.25
2023-03-06T13:42:27.164Z,5.07
2023-03-06T13:44:54.777Z,5.95
2023-03-06T13:47:32.241Z,5.38
2023-03-06T13:49:58.876Z,5.30
2023-03-06T13:55:10.307Z,5.88
2023-03-06T13:57:57.486Z,6.10
2023-03-06T14:00:33.006Z,6.50
2023-03-06T14:03:05.459Z,6.90
2023-03-06T14:05:40.917Z,6.90
2023-03-06T14:08:13.305Z,6.65
2023-03-06T14:10:40.170Z,6.18
2023-03-06T14:13:07.796Z,6.20
2023-03-06T14:15:42.823Z,6.20
2023-03-06T14:18:27.625Z,5.45
2023-03-06T14:20:59.428Z,5.80
2023-03-06T14:23:25.854Z,6.10
2023-03-06T14:26:07.651Z,5.68
2023-03-06T14:28:34.834Z,5.82
2023-03-06T14:31:02.623Z,4.95
2023-03-06T14:33:41.704Z,5.10
2023-03-06T14:36:12.660Z,4.80
2023-03-06T14:38:43.590Z,4.85
2023-03-06T14:41:11.738Z,4.85
2023-03-06T14:43:39.319Z,4.30
2023-03-06T14:46:06.630Z,4.78
2023-03-06T14:48:44.179Z,5.15
2023-03-06T14:51:18.345Z,4.35
2023-03-06T14:53:46.287Z,4.85
2023-03-06T14:56:22.639Z,4.70
2023-03-06T14:59:03.374Z,4.15
2023-03-06T15:01:34.027Z,4.30
2023-03-06T15:04:01.246Z,3.50
2023-03-06T15:06:33.220Z,3.70
2023-03-06T15:09:01.637Z,3.40
2023-03-06T15:11:47.957Z,3.10
2023-03-06T15:16:40.668Z,2.90
2023-03-06T15:19:17.015Z,2.47
2023-03-06T15:21:46.340Z,1.88
2023-03-06T15:24:30.764Z,3.38
2023-03-06T15:26:59.615Z,3.50
2023-03-06T15:29:27.141Z,2.92
2023-03-06T15:32:12.068Z,3.47
2023-03-06T15:34:38.472Z,3.67
2023-03-06T15:37:19.266Z,3.63
2023-03-06T15:39:48.353Z,3.33
2023-03-06T15:42:17.961Z,4.13
2023-03-06T15:44:47.566Z,4.43
2023-03-06T15:47:13.920Z,4.00
2023-03-06T15:49:40.291Z,4.68
2023-03-06T15:52:06.871Z,4.90
2023-03-06T15:54:33.572Z,4.93
2023-03-06T15:57:00.250Z,5.70
2023-03-06T16:01:53.773Z,5.45
2023-03-06T16:04:20.297Z,6.57
2023-03-06T16:06:46.717Z,7.20
2023-03-06T16:09:13.436Z,7.00
2023-03-06T16:14:36.813Z,7.05
2023-03-06T16:17:03.148Z,8.40
2023-03-06T16:19:29.544Z,8.73
2023-03-06T16:21:56.121Z,8.52
2023-03-06T16:24:22.898Z,10.05
2023-03-06T16:29:21.169Z,9.63
2023-03-06T16:31:47.538Z,10.63
2023-03-06T16:34:14.358Z,10.10
2023-03-06T16:39:11.294Z,9.73
2023-03-06T16:41:37.635Z,9.20
2023-03-06T16:44:04.013Z,11.25
2023-03-06T16:46:30.916Z,9.45
2023-03-06T16:49:03.174Z,10.43
2023-03-06T16:51:29.534Z,11.55
2023-03-06T16:53:55.844Z,11.73
2023-03-06T16:56:22.179Z,11.93
2023-03-06T16:58:48.615Z,10.38
2023-03-06T17:01:16.452Z,13.00
2023-03-06T17:03:42.892Z,12.45
2023-03-06T17:06:19.943Z,12.70
2023-03-06T17:08:46.907Z,11.82
2023-03-06T17:11:13.640Z,13.02
2023-03-06T17:13:40.190Z,12.23
2023-03-06T17:16:07.307Z,12.30
2023-03-06T17:18:33.917Z,10.50
2023-03-06T17:21:00.349Z,12.02
2023-03-06T17:23:27.500Z,9.85
2023-03-06T17:26:11.517Z,11.73
2023-03-06T17:28:37.942Z,12.05
2023-03-06T17:31:15.420Z,12.00
2023-03-06T17:33:42.155Z,11.63
2023-03-06T17:36:08.977Z,9.88
2023-03-06T17:41:03.286Z,8.13
2023-03-06T17:43:29.645Z,10.30
2023-03-06T17:45:55.937Z,11.30
2023-03-06T17:48:22.340Z,11.48
2023-03-06T17:50:55.664Z,10.40
2023-03-06T17:53:23.060Z,10.50
2023-03-06T17:55:49.433Z,10.95
2023-03-06T17:58:15.770Z,11.15
2023-03-06T18:00:42.253Z,13.27
2023-03-06T18:03:09.384Z,12.38
2023-03-06T18:05:36.250Z,11.45
2023-03-06T18:10:28.931Z,9.60
2023-03-06T18:12:56.592Z,12.05
2023-03-06T18:15:23.228Z,11.93
2023-03-06T18:17:49.609Z,11.52
2023-03-06T18:20:20.041Z,11.52
2023-03-06T18:22:46.910Z,10.05
2023-03-06T18:25:13.324Z,12.20
2023-03-06T18:27:40.177Z,11.55
2023-03-06T18:30:10.528Z,10.32
2023-03-06T18:32:36.992Z,12.90
2023-03-06T18:35:03.426Z,12.32
2023-03-06T18:37:29.760Z,11.77
2023-03-06T18:39:56.053Z,12.60
2023-03-06T18:42:22.464Z,10.85
2023-03-06T18:44:48.802Z,12.68
2023-03-06T18:47:15.531Z,12.25
2023-03-06T18:49:44.123Z,12.93
2023-03-06T18:52:10.831Z,12.25
2023-03-06T18:54:37.220Z,12.85
2023-03-06T18:57:03.972Z,11.85
2023-03-06T19:01:57.697Z,10.35
2023-03-06T19:04:24.828Z,9.80
2023-03-06T19:06:51.665Z,12.07
2023-03-06T19:09:18.000Z,12.50
2023-03-06T19:11:46.711Z,10.18
2023-03-06T19:14:13.933Z,12.65
2023-03-06T19:16:40.509Z,12.80
2023-03-06T19:19:06.907Z,15.38
2023-03-06T19:21:33.351Z,13.05
2023-03-06T19:24:01.365Z,12.57
2023-03-06T19:26:28.172Z,15.10
2023-03-06T19:28:54.545Z,9.80
2023-03-06T19:31:24.083Z,14.82
2023-03-06T19:33:52.877Z,15.27
2023-03-06T19:36:19.560Z,15.73
2023-03-06T19:38:50.242Z,15.02
2023-03-06T19:41:16.553Z,15.18
2023-03-06T19:43:43.156Z,15.02
2023-03-06T19:46:13.518Z,15.02
2023-03-06T19:48:43.166Z,12.85
2023-03-06T19:51:09.822Z,16.13
2023-03-06T19:53:36.358Z,15.15
2023-03-06T19:56:06.616Z,15.48
2023-03-06T19:58:33.329Z,14.18
2023-03-06T20:01:16.454Z,15.85
2023-03-06T20:03:42.879Z,13.90
2023-03-06T20:06:17.397Z,15.02
2023-03-06T20:08:44.166Z,17.50
2023-03-06T20:11:21.193Z,15.77
2023-03-06T20:13:47.971Z,17.45
2023-03-06T20:18:40.792Z,16.77
2023-03-06T20:21:07.249Z,20.02
2023-03-06T20:23:33.626Z,15.88
2023-03-06T20:26:04.056Z,17.45
2023-03-06T20:28:30.462Z,16.40
2023-03-06T20:30:56.925Z,14.90
2023-03-06T20:33:23.341Z,11.15
2023-03-06T20:35:49.654Z,17.75
2023-03-06T20:38:16.008Z,16.58
2023-03-06T20:40:42.714Z,17.23
2023-03-06T20:43:09.129Z,16.73
2023-03-06T20:45:35.470Z,18.00
2023-03-06T20:48:01.845Z,17.13
2023-03-06T20:50:28.211Z,16.52
2023-03-06T20:52:58.834Z,14.88
2023-03-06T20:55:25.276Z,17.20
2023-03-06T20:57:51.731Z,17.48
2023-03-06T21:00:18.840Z,17.75
2023-03-06T21:02:45.235Z,15.73
2023-03-06T21:05:11.677Z,18.38
2023-03-06T21:07:38.086Z,13.60
2023-03-06T21:10:04.664Z,16.67
2023-03-06T21:12:31.039Z,18.52
2023-03-06T21:14:58.985Z,18.08
2023-03-06T21:17:25.490Z,13.27
2023-03-06T21:19:52.786Z,15.43
2023-03-06T21:22:19.206Z,15.43
2023-03-06T21:24:45.578Z,13.93
2023-03-06T21:27:11.949Z,12.80
2023-03-06T21:29:38.365Z,18.58
2023-03-06T21:32:04.879Z,17.55
2023-03-06T21:34:31.287Z,12.63
2023-03-06T21:36:57.633Z,14.40
2023-03-06T21:39:23.984Z,17.25
2023-03-06T21:41:50.411Z,18.27
2023-03-06T21:44:16.786Z,17.65
2023-03-06T21:46:43.199Z,17.52
2023-03-06T21:49:09.655Z,16.13
2023-03-06T21:51:36.042Z,15.30
2023-03-06T21:54:02.873Z,13.20
2023-03-06T21:58:56.147Z,12.25
2023-03-06T22:03:49.031Z,10.80
2023-03-06T22:06:19.614Z,12.07
2023-03-06T22:08:46.396Z,11.52
2023-03-06T22:13:39.469Z,9.65
2023-03-06T22:16:06.330Z,9.63
2023-03-06T22:20:59.173Z,7.07
2023-03-06T22:23:25.650Z,8.40
2023-03-06T22:25:52.110Z,6.78
2023-03-06T22:28:18.939Z,7.10
2023-03-06T22:33:11.661Z,6.35
2023-03-06T22:35:38.046Z,6.35
2023-03-06T22:38:04.533Z,6.45
2023-03-06T22:40:31.202Z,6.53
2023-03-06T22:42:57.867Z,6.53
2023-03-06T22:45:24.217Z,6.55
2023-03-06T22:47:53.401Z,6.57
2023-03-06T22:50:21.670Z,5.80
2023-03-06T22:52:48.029Z,6.30
2023-03-06T22:55:14.381Z,5.43
2023-03-06T22:57:43.086Z,5.82
2023-03-06T23:00:11.009Z,5.05
2023-03-06T23:02:38.590Z,5.80
2023-03-06T23:05:04.928Z,5.03
2023-03-06T23:07:31.208Z,5.78
2023-03-06T23:10:00.310Z,5.50
2023-03-06T23:12:45.493Z,5.57
2023-03-06T23:15:30.471Z,5.63
2023-03-06T23:18:15.639Z,5.45
2023-03-06T23:21:00.624Z,5.32
2023-03-06T23:23:49.789Z,5.80
2023-03-06T23:26:16.453Z,6.22
2023-03-06T23:28:42.971Z,6.43
2023-03-06T23:31:09.973Z,6.72
2023-03-06T23:33:36.887Z,6.25
2023-03-06T23:36:03.962Z,7.60
2023-03-06T23:38:30.327Z,8.95
2023-03-06T23:40:56.743Z,8.77
2023-03-06T23:43:23.067Z,8.88
2023-03-06T23:45:53.662Z,7.88
2023-03-06T23:48:20.124Z,8.20
2023-03-06T23:50:46.617Z,7.63
2023-03-06T23:53:13.300Z,8.02
2023-03-06T23:55:46.741Z,7.32
2023-03-06T23:58:14.004Z,6.82
